Latest Weather Observations for Mount Lofty

IDS60801

Issued at 3:02 pm CDT Friday 30 January 2015 (issued every 30 minutes, with the page automatically refreshed every 10 minutes)

About weather observations | Map of weather stations | Latest weather observations for SA | Other Formats
Station Details ID: 023842 Name: MOUNT LOFTY Lat: -34.98 Lon: 138.71 Height: 685.0 m
Data from the previous 72 hours. | See also: Recent months at Mount Lofty
Date/Time
CDT
Temp
°C
App
Temp
°C
Dew
Point
Rel
Hum
%
Delta-T
°C
Wind Press
QNH
hPa
Press
MSL
hPa
Rain
since 9 am
mm
Dir
 
Spd
km/h
Gust
km/h
Spd
kts
Gust
kts
30/03:00pm 20.8 17.9 4.4 34 8.2 SE 9 22 5 12 - - 0.0
30/02:30pm 20.6 17.9 3.8 33 8.3 SE 7 20 4 11 - - 0.0
30/02:00pm 20.9 18.9 6.4 39 7.6 S 6 13 3 7 - - 0.0
30/01:30pm 20.3 17.7 5.9 39 7.4 SE 9 20 5 11 - - 0.0
30/01:00pm 20.5 18.1 5.3 37 7.8 SE 7 19 4 10 - - 0.0
30/12:30pm 19.3 16.7 6.1 42 6.8 ESE 9 19 5 10 - - 0.0
30/12:00pm 18.9 16.3 6.1 43 6.6 SE 9 19 5 10 - - 0.0
30/11:30am 17.9 15.1 7.0 49 5.6 ESE 11 24 6 13 - - 0.0
30/11:00am 18.1 16.0 8.1 52 5.3 ESE 9 17 5 9 - - 0.0
30/10:30am 16.7 13.9 8.7 59 4.3 ESE 13 24 7 13 - - 0.0
30/10:00am 15.2 12.0 8.4 64 3.6 ESE 15 28 8 15 - - 0.0
30/09:30am 13.8 10.0 7.6 66 3.2 ESE 17 28 9 15 - - 0.0
30/09:00am 13.3 10.3 7.7 69 2.9 ESE 13 24 7 13 - - 0.0
30/08:30am 12.1 8.6 7.2 72 2.5 ESE 15 22 8 12 - - 0.0
30/08:00am 10.7 7.2 7.0 78 1.8 ESE 15 22 8 12 - - 0.0
30/07:30am 10.2 6.5 6.4 77 1.8 ESE 15 24 8 13 - - 0.0
30/07:00am 9.6 6.2 6.0 78 1.7 ESE 13 20 7 11 - - 0.0
30/06:30am 9.6 6.2 6.1 79 1.7 ESE 13 20 7 11 - - 0.0
30/06:00am 9.7 5.9 5.9 77 1.8 ESE 15 20 8 11 - - 0.0
30/05:30am 9.9 6.2 6.1 77 1.8 ESE 15 24 8 13 - - 0.0
30/05:00am 10.3 6.6 6.1 75 2.0 E 15 26 8 14 - - 0.0
30/04:30am 10.7 7.0 6.3 74 2.1 ESE 15 24 8 13 - - 0.0
30/04:00am 11.2 7.7 7.1 76 2.0 ESE 15 26 8 14 - - 0.0
30/03:30am 11.3 8.3 7.8 79 1.8 E 13 24 7 13 - - 0.0
30/03:00am 11.9 8.8 8.9 82 1.6 ESE 15 24 8 13 - - 0.0
30/02:30am 12.2 9.3 9.6 84 1.4 ESE 15 24 8 13 - - 0.0
30/02:00am 12.4 10.2 10.8 90 0.9 ESE 13 22 7 12 - - 0.0
30/01:30am 12.6 11.0 11.5 93 0.6 ESE 11 22 6 12 - - 0.0
30/01:00am 12.5 10.6 11.7 95 0.4 ESE 13 22 7 12 - - 0.0
30/12:30am 12.6 10.4 12.0 96 0.3 ESE 15 28 8 15 - - 0.0
30/12:00am 12.6 9.9 11.8 95 0.4 ESE 17 30 9 16 - - 0.0
 
Date/Time
CDT
Temp
°C
App
Temp
°C
Dew
Point
Rel
Hum
%
Delta-T
°C
Wind Press
QNH
hPa
Press
MSL
hPa
Rain
since 9 am
mm
Dir
 
Spd
km/h
Gust
km/h
Spd
kts
Gust
kts
29/11:30pm 12.6 9.9 11.8 95 0.4 ESE 17 33 9 18 - - 0.0
29/11:00pm 12.7 10.4 11.8 94 0.5 ESE 15 28 8 15 - - 0.0
29/10:30pm 12.7 10.3 11.4 92 0.7 ESE 15 26 8 14 - - 0.0
29/10:00pm 12.8 10.3 11.2 90 0.9 ESE 15 32 8 17 - - 0.0
29/09:30pm 13.0 10.1 11.1 88 1.0 ESE 17 28 9 15 - - 0.0
29/09:00pm 13.5 11.3 10.9 84 1.4 ESE 13 24 7 13 - - 0.0
29/08:30pm 14.5 11.8 10.5 77 2.2 ESE 15 28 8 15 - - 0.0
29/08:00pm 15.7 13.2 9.6 67 3.3 ESE 13 28 7 15 - - 0.0
29/07:30pm 16.9 15.1 9.3 61 4.1 SE 9 20 5 11 - - 0.0
29/07:00pm 18.1 15.8 8.9 55 5.0 ESE 11 22 6 12 - - 0.0
29/06:30pm 19.3 16.9 8.6 50 5.8 SE 11 24 6 13 - - 0.0
29/06:00pm 20.3 17.3 7.7 44 6.7 SE 13 22 7 12 - - 0.0
29/05:30pm 21.1 16.9 5.9 37 7.9 ESE 17 32 9 17 - - 0.0
29/05:00pm 22.3 19.0 4.8 32 8.9 SE 11 22 6 12 - - 0.0
29/04:30pm 22.6 18.7 3.2 28 9.6 ESE 13 20 7 11 - - 0.0
29/04:00pm 22.9 19.3 2.9 27 9.9 SE 11 22 6 12 - - 0.0
29/03:30pm 22.6 18.2 2.7 27 9.8 ESE 15 32 8 17 - - 0.0
29/03:00pm 23.2 19.2 2.7 26 10.1 ESE 13 30 7 16 - - 0.0
29/02:30pm 21.8 17.5 0.9 25 9.9 ESE 13 26 7 14 - - 0.0
29/02:00pm 21.9 17.6 3.1 29 9.3 ESE 15 30 8 16 - - 0.0
29/01:30pm 21.3 17.0 3.5 31 8.8 SE 15 30 8 16 - - 0.0
29/01:00pm 20.5 16.9 4.9 36 7.9 ESE 13 30 7 16 - - 0.0
29/12:30pm 20.1 16.7 5.7 39 7.4 ESE 13 26 7 14 - - 0.0
29/12:00pm 19.3 16.1 6.8 44 6.5 ESE 13 24 7 13 - - 0.0
29/11:30am 18.5 15.1 7.6 49 5.7 ESE 15 26 8 14 - - 0.0
29/11:00am 17.4 14.3 7.2 51 5.3 ESE 13 26 7 14 - - 0.0
29/10:30am 16.9 13.8 7.3 53 5.0 ESE 13 26 7 14 - - 0.0
29/10:00am 15.7 12.3 7.7 59 4.1 E 15 24 8 13 - - 0.0
29/09:30am 15.1 12.7 8.6 65 3.4 E 11 24 6 13 - - 0.0
29/09:00am 13.5 10.1 7.5 67 3.1 E 15 26 8 14 - - 0.0
29/08:30am 12.4 8.9 7.1 70 2.7 ESE 15 28 8 15 - - 0.0
29/08:00am 11.3 7.3 6.8 74 2.2 ESE 17 26 9 14 - - 0.0
29/07:30am 10.5 6.8 6.5 76 2.0 ESE 15 24 8 13 - - 0.0
29/07:00am 10.1 6.5 6.6 79 1.7 ESE 15 24 8 13 - - 0.0
29/06:30am 10.3 6.7 6.6 78 1.8 ESE 15 24 8 13 - - 0.0
29/06:00am 10.4 7.1 6.5 77 1.9 ESE 13 20 7 11 - - 0.0
29/05:30am 10.6 7.7 6.7 77 1.9 ESE 11 17 6 9 - - 0.0
29/05:00am 10.8 8.0 6.9 77 1.9 E 11 19 6 10 - - 0.0
29/04:30am 11.4 8.3 7.3 76 2.0 ESE 13 26 7 14 - - 0.0
29/04:00am 11.9 8.1 7.6 75 2.2 ESE 17 26 9 14 - - 0.0
29/03:30am 12.0 8.9 8.7 80 1.7 ESE 15 24 8 13 - - 0.0
29/03:00am 12.2 9.7 9.6 84 1.4 ESE 13 22 7 12 - - 0.0
29/02:30am 11.9 9.6 10.6 92 0.7 ESE 13 22 7 12 - - 0.0
29/02:00am 12.1 10.0 11.3 95 0.4 ESE 13 24 7 13 - - 0.0
29/01:30am 12.6 10.8 12.1 97 0.3 ESE 13 24 7 13 - - 0.0
29/01:00am 12.9 10.8 12.4 97 0.3 ESE 15 30 8 16 - - 0.0
29/12:30am 13.1 11.1 12.6 97 0.3 ESE 15 30 8 16 - - 0.0
29/12:00am 13.0 10.6 12.5 97 0.3 ESE 17 32 9 17 - - 0.0
 
Date/Time
CDT
Temp
°C
App
Temp
°C
Dew
Point
Rel
Hum
%
Delta-T
°C
Wind Press
QNH
hPa
Press
MSL
hPa
Rain
since 9 am
mm
Dir
 
Spd
km/h
Gust
km/h
Spd
kts
Gust
kts
28/11:30pm 12.8 10.7 12.3 97 0.3 ESE 15 32 8 17 - - 0.0
28/11:00pm 12.8 11.1 12.3 97 0.3 ESE 13 30 7 16 - - 0.0
28/10:30pm 12.7 10.9 12.2 97 0.3 ESE 13 24 7 13 - - 0.0
28/10:00pm 12.6 11.1 12.0 96 0.3 SE 11 26 6 14 - - 0.0
28/09:30pm 12.4 10.8 11.6 95 0.4 SE 11 24 6 13 - - 0.0
28/09:00pm 12.3 10.7 11.4 94 0.5 ESE 11 30 6 16 - - 0.0
28/08:30pm 12.7 10.9 10.9 89 1.0 SE 11 24 6 13 - - 0.0
28/08:00pm 13.7 12.2 10.5 81 1.7 SE 9 19 5 10 - - 0.0
28/07:30pm 14.9 13.4 10.5 75 2.4 ESE 9 15 5 8 - - 0.0
28/07:00pm 15.7 13.9 9.6 67 3.3 SE 9 15 5 8 - - 0.0
28/06:30pm 16.4 14.3 9.8 65 3.6 SE 11 26 6 14 - - 0.0
28/06:00pm 16.8 13.8 9.2 61 4.1 SE 15 28 8 15 - - 0.0
28/05:30pm 17.3 14.4 9.5 60 4.2 SE 15 30 8 16 - - 0.0
28/05:00pm 17.8 14.7 8.9 56 4.8 ESE 15 32 8 17 - - 0.0
28/04:30pm 18.3 15.8 8.3 52 5.3 SE 11 28 6 15 - - 0.0
28/04:00pm 18.2 14.8 7.6 50 5.6 ESE 15 32 8 17 - - 0.0
28/03:30pm 18.2 14.6 8.2 52 5.3 ESE 17 30 9 16 - - 0.0
28/03:00pm 17.8 13.6 7.5 51 5.4 ESE 19 32 10 17 - - 0.0
28/02:30pm 17.7 14.5 6.9 49 5.6 SE 13 28 7 15 - - 0.0
28/02:00pm 18.0 15.7 7.4 50 5.5 SE 9 20 5 11 - - 0.0
28/01:30pm 17.5 14.7 7.0 50 5.4 ESE 11 32 6 17 - - 0.0
28/01:00pm 16.2 11.7 6.1 51 5.1 ESE 19 32 10 17 - - 0.0
28/12:30pm 15.3 10.7 5.5 52 4.8 SE 19 41 10 22 - - 0.0
28/12:00pm 14.9 10.5 6.7 58 4.1 ESE 19 35 10 19 - - 0.0
28/11:30am 14.1 10.1 6.5 60 3.8 SE 17 35 9 19 - - 0.0
28/11:00am 13.0 8.3 6.1 63 3.4 ESE 20 44 11 24 - - 0.0
28/10:30am 12.3 7.6 6.1 66 3.0 ESE 20 32 11 17 - - 0.0
28/10:00am 11.7 6.0 6.6 71 2.5 ESE 26 43 14 23 - - 0.0
28/09:30am 10.9 5.2 6.5 74 2.2 ESE 26 52 14 28 - - 0.0
28/09:12am 9.9 3.7 6.1 77 1.8 ESE 28 52 15 28 - - 0.0
28/09:00am 9.8 4.0 6.2 78 1.7 ESE 26 46 14 25 - - 0.0
28/08:44am 9.5 3.3 6.2 80 1.6 ESE 28 50 15 27 - - 0.0
28/08:30am 9.1 3.4 6.7 85 1.2 ESE 26 48 14 26 - - 0.0
28/08:00am 8.1 1.9 6.2 88 0.9 ESE 28 46 15 25 - - 0.0
28/07:30am 7.8 1.7 6.4 91 0.7 ESE 28 48 15 26 - - 0.0
28/07:20am 7.6 1.5 6.4 92 0.6 ESE 28 46 15 25 - - 0.0
28/07:00am 7.2 1.8 6.3 94 0.4 ESE 24 41 13 22 - - 0.0
28/06:30am 7.0 1.1 5.9 93 0.5 ESE 26 44 14 24 - - 0.0
28/06:00am 7.0 1.8 5.6 91 0.7 ESE 22 35 12 19 - - 0.0
28/05:30am 7.2 2.4 5.7 90 0.7 ESE 20 32 11 17 - - 0.0
28/05:00am 7.3 2.2 5.8 90 0.7 ESE 22 35 12 19 - - 0.0
28/04:30am 7.7 3.0 6.0 89 0.8 ESE 20 33 11 18 - - 0.0
28/04:00am 8.1 3.0 5.9 86 1.0 ESE 22 37 12 20 - - 0.0
28/03:30am 8.3 3.2 6.1 86 1.0 ESE 22 43 12 23 - - 0.0
28/03:00am 8.6 4.0 6.4 86 1.1 ESE 20 37 11 20 - - 0.0
28/02:30am 8.8 4.9 6.9 88 0.9 ESE 17 32 9 17 - - 0.0
28/02:00am 9.3 5.6 7.9 91 0.7 ESE 17 46 9 25 - - 0.0
28/01:30am 9.8 6.7 8.7 93 0.6 SE 15 30 8 16 - - 0.0
28/01:00am 10.2 7.2 9.3 94 0.5 SE 15 30 8 16 - - 0.0
28/12:30am 10.2 7.2 9.3 94 0.5 SE 15 32 8 17 - - 0.0
28/12:00am 10.2 7.2 9.3 94 0.5 SE 15 37 8 20 - - 0.0
 
Date/Time
CDT
Temp
°C
App
Temp
°C
Dew
Point
Rel
Hum
%
Delta-T
°C
Wind Press
QNH
hPa
Press
MSL
hPa
Rain
since 9 am
mm
Dir
 
Spd
km/h
Gust
km/h
Spd
kts
Gust
kts
27/11:30pm 10.1 6.7 9.0 93 0.6 SE 17 32 9 17 - - 0.0
27/11:00pm 10.0 6.5 8.9 93 0.6 ESE 17 39 9 21 - - 0.0
27/10:30pm 9.6 6.7 8.2 91 0.7 ESE 13 30 7 16 - - 0.0
27/10:00pm 9.7 6.8 8.0 89 0.9 SE 13 30 7 16 - - 0.0
27/09:30pm 9.9 6.2 8.0 88 1.0 ESE 17 35 9 19 - - 0.0
27/09:00pm 10.1 6.4 7.9 86 1.1 SE 17 35 9 19 - - 0.0
27/08:30pm 10.3 7.3 7.7 84 1.3 SE 13 28 7 15 - - 0.0
27/08:00pm 11.0 8.3 7.3 78 1.8 SE 11 30 6 16 - - 0.0
27/07:30pm 11.8 8.7 7.3 74 2.3 SE 13 30 7 16 - - 0.0
27/07:00pm 12.3 9.1 7.0 70 2.6 SE 13 26 7 14 - - 0.0
27/06:30pm 13.2 10.6 6.3 63 3.4 SSE 9 24 5 13 - - 0.0
27/06:00pm 13.9 11.0 6.7 62 3.6 SE 11 24 6 13 - - 0.0
27/05:30pm 14.6 11.9 7.4 62 3.7 SE 11 22 6 12 - - 0.0
27/05:00pm 15.0 12.2 7.1 59 4.0 SSE 11 28 6 15 - - 0.0
27/04:30pm 15.0 12.3 7.3 60 3.9 SE 11 32 6 17 - - 0.0
27/04:00pm 15.4 12.7 7.4 59 4.1 SE 11 22 6 12 - - 0.0
27/03:30pm 15.8 13.5 7.6 58 4.2 SE 9 22 5 12 - - 0.0

Other Formats:

Comma delimited format used in spreadsheet applications
http://www.bom.gov.au/fwo/IDS60801/IDS60801.95678.axf

JavaScript Object Notation format (JSON) in row-major order
http://www.bom.gov.au/fwo/IDS60801/IDS60801.95678.json